<?xml version='1.0' encoding='UTF-8'?><gpx version="1.1" creator="JPX - https://github.com/jenetics/jpx" xmlns="http://www.topografix.com/GPX/1/1"><trk><trkseg><trkpt lat="42.3693603" lon="14.2346583"><ele>50.0</ele><time>2026-05-01T08:45:32.582Z</time></trkpt><trkpt lat="42.3694636" lon="14.23468"><ele>50.0</ele><time>2026-05-01T08:45:33.582Z</time></trkpt><trkpt lat="42.3695753" lon="14.2346945"><ele>50.0</ele><time>2026-05-01T08:45:34.583Z</time></trkpt><trkpt lat="42.3696758" lon="14.2347059"><ele>50.0</ele><time>2026-05-01T08:45:35.582Z</time></trkpt><trkpt lat="42.3697686" lon="14.2347179"><ele>50.0</ele><time>2026-05-01T08:45:36.582Z</time></trkpt><trkpt lat="42.3698539" lon="14.2347312"><ele>49.333333333333336</ele><time>2026-05-01T08:45:37.583Z</time></trkpt><trkpt lat="42.3699244" lon="14.2347629"><ele>48.66666666666667</ele><time>2026-05-01T08:45:38.583Z</time></trkpt><trkpt lat="42.3699882" lon="14.2348134"><ele>48.0</ele><time>2026-05-01T08:45:39.582Z</time></trkpt><trkpt lat="42.3700342" lon="14.2348952"><ele>47.333333333333336</ele><time>2026-05-01T08:45:40.582Z</time></trkpt><trkpt lat="42.3700665" lon="14.2349997"><ele>46.66666666666667</ele><time>2026-05-01T08:45:41.583Z</time></trkpt><trkpt lat="42.3700775" lon="14.2351331"><ele>46.0</ele><time>2026-05-01T08:45:42.582Z</time></trkpt><trkpt lat="42.3700837" lon="14.2352933"><ele>45.0</ele><time>2026-05-01T08:45:43.582Z</time></trkpt><trkpt lat="42.3701063" lon="14.2354837"><ele>44.0</ele><time>2026-05-01T08:45:44.583Z</time></trkpt><trkpt lat="42.3701175" lon="14.2356791"><ele>43.0</ele><time>2026-05-01T08:45:45.582Z</time></trkpt><trkpt lat="42.370129" lon="14.235856"><ele>42.0</ele><time>2026-05-01T08:45:46.582Z</time></trkpt><trkpt lat="42.3701193" lon="14.2360325"><ele>42.0</ele><time>2026-05-01T08:45:47.583Z</time></trkpt><trkpt lat="42.3700919" lon="14.2362153"><ele>42.0</ele><time>2026-05-01T08:45:48.583Z</time></trkpt><trkpt lat="42.3700504" lon="14.2364205"><ele>42.0</ele><time>2026-05-01T08:45:49.582Z</time></trkpt><trkpt lat="42.3700159" lon="14.2366406"><ele>42.0</ele><time>2026-05-01T08:45:50.583Z</time></trkpt><trkpt lat="42.3699872" lon="14.2368603"><ele>42.0</ele><time>2026-05-01T08:45:51.583Z</time></trkpt><trkpt lat="42.3699877" lon="14.237049"><ele>42.0</ele><time>2026-05-01T08:45:52.582Z</time></trkpt><trkpt lat="42.3700196" lon="14.2372099"><ele>42.0</ele><time>2026-05-01T08:45:53.582Z</time></trkpt><trkpt lat="42.3700865" lon="14.2373461"><ele>42.0</ele><time>2026-05-01T08:45:54.583Z</time></trkpt><trkpt lat="42.3701985" lon="14.2374637"><ele>42.0</ele><time>2026-05-01T08:45:55.583Z</time></trkpt><trkpt lat="42.3703513" lon="14.2375751"><ele>42.0</ele><time>2026-05-01T08:45:56.583Z</time></trkpt><trkpt lat="42.3705284" lon="14.2376971"><ele>42.0</ele><time>2026-05-01T08:45:57.583Z</time></trkpt><trkpt lat="42.3707194" lon="14.2378354"><ele>42.0</ele><time>2026-05-01T08:45:58.582Z</time></trkpt><trkpt lat="42.3709003" lon="14.2379743"><ele>42.0</ele><time>2026-05-01T08:45:59.582Z</time></trkpt><trkpt lat="42.3710663" lon="14.2381"><ele>42.333333333333336</ele><time>2026-05-01T08:46:00.583Z</time></trkpt><trkpt lat="42.3712258" lon="14.2382065"><ele>42.66666666666667</ele><time>2026-05-01T08:46:01.583Z</time></trkpt><trkpt lat="42.3713766" lon="14.2383158"><ele>43.0</ele><time>2026-05-01T08:46:02.582Z</time></trkpt><trkpt lat="42.3715195" lon="14.2384329"><ele>43.0</ele><time>2026-05-01T08:46:03.582Z</time></trkpt><trkpt lat="42.3716477" lon="14.2385648"><ele>43.0</ele><time>2026-05-01T08:46:04.582Z</time></trkpt><trkpt lat="42.3717683" lon="14.2386978"><ele>43.0</ele><time>2026-05-01T08:46:05.583Z</time></trkpt><trkpt lat="42.3718828" lon="14.2388525"><ele>42.0</ele><time>2026-05-01T08:46:06.582Z</time></trkpt><trkpt lat="42.3719757" lon="14.2390234"><ele>41.0</ele><time>2026-05-01T08:46:07.582Z</time></trkpt><trkpt lat="42.3720725" lon="14.2391865"><ele>40.0</ele><time>2026-05-01T08:46:08.582Z</time></trkpt><trkpt lat="42.372171" lon="14.2393342"><ele>40.25</ele><time>2026-05-01T08:46:09.582Z</time></trkpt><trkpt lat="42.3722762" lon="14.2394752"><ele>40.5</ele><time>2026-05-01T08:46:10.583Z</time></trkpt><trkpt lat="42.3723821" lon="14.2395936"><ele>40.75</ele><time>2026-05-01T08:46:11.582Z</time></trkpt><trkpt lat="42.3724783" lon="14.2396933"><ele>41.0</ele><time>2026-05-01T08:46:12.583Z</time></trkpt><trkpt lat="42.3725689" lon="14.2397664"><ele>41.199999999999996</ele><time>2026-05-01T08:46:13.582Z</time></trkpt><trkpt lat="42.3726589" lon="14.2398341"><ele>41.4</ele><time>2026-05-01T08:46:14.583Z</time></trkpt><trkpt lat="42.3727504" lon="14.2399173"><ele>41.6</ele><time>2026-05-01T08:46:15.582Z</time></trkpt><trkpt lat="42.3728367" lon="14.2399939"><ele>41.8</ele><time>2026-05-01T08:46:16.583Z</time></trkpt><trkpt lat="42.3729276" lon="14.2400705"><ele>42.0</ele><time>2026-05-01T08:46:17.582Z</time></trkpt><trkpt lat="42.3730159" lon="14.2401372"><ele>41.2</ele><time>2026-05-01T08:46:18.583Z</time></trkpt><trkpt lat="42.3730989" lon="14.2402031"><ele>40.400000000000006</ele><time>2026-05-01T08:46:19.582Z</time></trkpt><trkpt lat="42.3731871" lon="14.2402715"><ele>39.599999999999994</ele><time>2026-05-01T08:46:20.583Z</time></trkpt><trkpt lat="42.3732795" lon="14.2403392"><ele>38.8</ele><time>2026-05-01T08:46:21.582Z</time></trkpt><trkpt lat="42.373372" lon="14.240406"><ele>38.0</ele><time>2026-05-01T08:46:22.583Z</time></trkpt><trkpt lat="42.3734607" lon="14.2404821"><ele>38.0</ele><time>2026-05-01T08:46:23.582Z</time></trkpt><trkpt lat="42.3735592" lon="14.2405631"><ele>38.0</ele><time>2026-05-01T08:46:24.582Z</time></trkpt><trkpt lat="42.3736582" lon="14.2406579"><ele>38.0</ele><time>2026-05-01T08:46:25.582Z</time></trkpt><trkpt lat="42.373762" lon="14.2407744"><ele>38.0</ele><time>2026-05-01T08:46:26.582Z</time></trkpt><trkpt lat="42.3738644" lon="14.2408898"><ele>37.5</ele><time>2026-05-01T08:46:27.582Z</time></trkpt><trkpt lat="42.3739527" lon="14.2410037"><ele>37.0</ele><time>2026-05-01T08:46:28.582Z</time></trkpt><trkpt lat="42.37404" lon="14.2411108"><ele>36.5</ele><time>2026-05-01T08:46:29.583Z</time></trkpt><trkpt lat="42.3741365" lon="14.2412132"><ele>36.0</ele><time>2026-05-01T08:46:30.583Z</time></trkpt><trkpt lat="42.3742487" lon="14.241293"><ele>36.0</ele><time>2026-05-01T08:46:31.583Z</time></trkpt><trkpt lat="42.3743781" lon="14.2413664"><ele>36.0</ele><time>2026-05-01T08:46:32.582Z</time></trkpt><trkpt lat="42.3745003" lon="14.2414527"><ele>36.0</ele><time>2026-05-01T08:46:33.583Z</time></trkpt><trkpt lat="42.3746136" lon="14.2415586"><ele>36.0</ele><time>2026-05-01T08:46:34.583Z</time></trkpt><trkpt lat="42.3747204" lon="14.2416822"><ele>35.5</ele><time>2026-05-01T08:46:35.582Z</time></trkpt><trkpt lat="42.3748265" lon="14.2418125"><ele>35.0</ele><time>2026-05-01T08:46:36.583Z</time></trkpt><trkpt lat="42.3749338" lon="14.2419465"><ele>34.5</ele><time>2026-05-01T08:46:37.583Z</time></trkpt><trkpt lat="42.3750424" lon="14.2420791"><ele>34.0</ele><time>2026-05-01T08:46:38.582Z</time></trkpt><trkpt lat="42.375143" lon="14.2422054"><ele>35.0</ele><time>2026-05-01T08:46:39.583Z</time></trkpt><trkpt lat="42.3752291" lon="14.2423243"><ele>36.0</ele><time>2026-05-01T08:46:40.583Z</time></trkpt><trkpt lat="42.3752875" lon="14.2424328"><ele>37.0</ele><time>2026-05-01T08:46:41.583Z</time></trkpt><trkpt lat="42.3753275" lon="14.2425302"><ele>38.0</ele><time>2026-05-01T08:46:42.583Z</time></trkpt><trkpt lat="42.3753446" lon="14.2426361"><ele>39.0</ele><time>2026-05-01T08:46:43.583Z</time></trkpt><trkpt lat="42.375347" lon="14.2427474"><ele>39.0</ele><time>2026-05-01T08:46:44.583Z</time></trkpt><trkpt lat="42.3753261" lon="14.2428727"><ele>39.0</ele><time>2026-05-01T08:46:45.583Z</time></trkpt><trkpt lat="42.3752865" lon="14.2430099"><ele>39.0</ele><time>2026-05-01T08:46:46.582Z</time></trkpt><trkpt lat="42.3752178" lon="14.2431701"><ele>39.0</ele><time>2026-05-01T08:46:47.583Z</time></trkpt><trkpt lat="42.3751468" lon="14.243353"><ele>41.0</ele><time>2026-05-01T08:46:48.583Z</time></trkpt><trkpt lat="42.3750762" lon="14.243546"><ele>43.0</ele><time>2026-05-01T08:46:49.582Z</time></trkpt><trkpt lat="42.3749933" lon="14.2437337"><ele>45.0</ele><time>2026-05-01T08:46:50.582Z</time></trkpt><trkpt lat="42.3749185" lon="14.2439164"><ele>46.5</ele><time>2026-05-01T08:46:51.582Z</time></trkpt><trkpt lat="42.3748476" lon="14.2440897"><ele>48.0</ele><time>2026-05-01T08:46:52.582Z</time></trkpt><trkpt lat="42.3747821" lon="14.2442616"><ele>49.5</ele><time>2026-05-01T08:46:53.582Z</time></trkpt><trkpt lat="42.3747205" lon="14.2444245"><ele>51.0</ele><time>2026-05-01T08:46:54.582Z</time></trkpt><trkpt lat="42.3746648" lon="14.2445897"><ele>54.25</ele><time>2026-05-01T08:46:55.583Z</time></trkpt><trkpt lat="42.3746159" lon="14.2447625"><ele>57.5</ele><time>2026-05-01T08:46:56.582Z</time></trkpt><trkpt lat="42.3745729" lon="14.2449412"><ele>60.75</ele><time>2026-05-01T08:46:57.583Z</time></trkpt><trkpt lat="42.3745345" lon="14.2451241"><ele>64.0</ele><time>2026-05-01T08:46:58.582Z</time></trkpt><trkpt lat="42.3745066" lon="14.2453081"><ele>64.75</ele><time>2026-05-01T08:46:59.582Z</time></trkpt><trkpt lat="42.3744748" lon="14.2454927"><ele>65.5</ele><time>2026-05-01T08:47:00.583Z</time></trkpt><trkpt lat="42.3744382" lon="14.2456866"><ele>66.25</ele><time>2026-05-01T08:47:01.582Z</time></trkpt><trkpt lat="42.3743956" lon="14.2458911"><ele>67.0</ele><time>2026-05-01T08:47:02.582Z</time></trkpt><trkpt lat="42.3743475" lon="14.2460849"><ele>68.5</ele><time>2026-05-01T08:47:03.582Z</time></trkpt><trkpt lat="42.3742904" lon="14.2462604"><ele>70.0</ele><time>2026-05-01T08:47:04.582Z</time></trkpt><trkpt lat="42.3742181" lon="14.2464259"><ele>71.5</ele><time>2026-05-01T08:47:05.582Z</time></trkpt><trkpt lat="42.3741401" lon="14.2465744"><ele>73.0</ele><time>2026-05-01T08:47:06.583Z</time></trkpt><trkpt lat="42.3740586" lon="14.2467052"><ele>73.4</ele><time>2026-05-01T08:47:07.582Z</time></trkpt><trkpt lat="42.3739931" lon="14.2468311"><ele>73.8</ele><time>2026-05-01T08:47:08.583Z</time></trkpt><trkpt lat="42.3739561" lon="14.2469459"><ele>74.2</ele><time>2026-05-01T08:47:09.582Z</time></trkpt><trkpt lat="42.3739542" lon="14.2470672"><ele>74.6</ele><time>2026-05-01T08:47:10.582Z</time></trkpt><trkpt lat="42.3739589" lon="14.2472049"><ele>75.0</ele><time>2026-05-01T08:47:11.582Z</time></trkpt><trkpt lat="42.373957" lon="14.2473451"><ele>76.5</ele><time>2026-05-01T08:47:12.583Z</time></trkpt><trkpt lat="42.373929" lon="14.2474979"><ele>78.0</ele><time>2026-05-01T08:47:13.582Z</time></trkpt><trkpt lat="42.3738871" lon="14.2476542"><ele>79.5</ele><time>2026-05-01T08:47:14.582Z</time></trkpt><trkpt lat="42.3738449" lon="14.2478008"><ele>81.0</ele><time>2026-05-01T08:47:15.582Z</time></trkpt><trkpt lat="42.3738138" lon="14.2479324"><ele>84.0</ele><time>2026-05-01T08:47:16.582Z</time></trkpt><trkpt lat="42.373804" lon="14.2480628"><ele>87.0</ele><time>2026-05-01T08:47:17.582Z</time></trkpt><trkpt lat="42.3738054" lon="14.2481973"><ele>90.0</ele><time>2026-05-01T08:47:18.583Z</time></trkpt><trkpt lat="42.3738191" lon="14.248359"><ele>93.0</ele><time>2026-05-01T08:47:19.583Z</time></trkpt><trkpt lat="42.3738279" lon="14.2485361"><ele>96.0</ele><time>2026-05-01T08:47:20.582Z</time></trkpt><trkpt lat="42.3738326" lon="14.2487153"><ele>97.25</ele><time>2026-05-01T08:47:21.582Z</time></trkpt><trkpt lat="42.3738204" lon="14.2488794"><ele>98.5</ele><time>2026-05-01T08:47:22.582Z</time></trkpt><trkpt lat="42.3737897" lon="14.2490468"><ele>99.75</ele><time>2026-05-01T08:47:23.583Z</time></trkpt><trkpt lat="42.3737511" lon="14.2492139"><ele>101.0</ele><time>2026-05-01T08:47:24.582Z</time></trkpt><trkpt lat="42.3737127" lon="14.249396"><ele>103.0</ele><time>2026-05-01T08:47:25.583Z</time></trkpt><trkpt lat="42.373665" lon="14.2496165"><ele>105.0</ele><time>2026-05-01T08:47:26.582Z</time></trkpt><trkpt lat="42.3736109" lon="14.2498529"><ele>107.0</ele><time>2026-05-01T08:47:27.583Z</time></trkpt><trkpt lat="42.3735624" lon="14.2500584"><ele>107.6</ele><time>2026-05-01T08:47:28.582Z</time></trkpt><trkpt lat="42.3735187" lon="14.2502042"><ele>108.19999999999999</ele><time>2026-05-01T08:47:29.583Z</time></trkpt><trkpt lat="42.3734925" lon="14.2503061"><ele>108.8</ele><time>2026-05-01T08:47:30.583Z</time></trkpt><trkpt lat="42.3735238" lon="14.250461"><ele>109.4</ele><time>2026-05-01T08:47:32.582Z</time></trkpt><trkpt lat="42.3735957" lon="14.2505242"><ele>110.0</ele><time>2026-05-01T08:47:33.583Z</time></trkpt><trkpt lat="42.3736936" lon="14.2505813"><ele>110.0</ele><time>2026-05-01T08:47:34.583Z</time></trkpt><trkpt lat="42.373787" lon="14.2506452"><ele>110.0</ele><time>2026-05-01T08:47:35.582Z</time></trkpt><trkpt lat="42.3738799" lon="14.2507345"><ele>110.0</ele><time>2026-05-01T08:47:36.582Z</time></trkpt><trkpt lat="42.3739647" lon="14.2508452"><ele>110.0</ele><time>2026-05-01T08:47:37.583Z</time></trkpt><trkpt lat="42.3740324" lon="14.2509684"><ele>110.0</ele><time>2026-05-01T08:47:38.583Z</time></trkpt><trkpt lat="42.3740837" lon="14.2510984"><ele>110.0</ele><time>2026-05-01T08:47:39.582Z</time></trkpt><trkpt lat="42.3741063" lon="14.2512428"><ele>110.0</ele><time>2026-05-01T08:47:40.582Z</time></trkpt><trkpt lat="42.3741057" lon="14.2514001"><ele>110.0</ele><time>2026-05-01T08:47:41.583Z</time></trkpt><trkpt lat="42.3740844" lon="14.2515722"><ele>113.0</ele><time>2026-05-01T08:47:42.583Z</time></trkpt><trkpt lat="42.3740435" lon="14.2517605"><ele>116.0</ele><time>2026-05-01T08:47:43.582Z</time></trkpt><trkpt lat="42.3739867" lon="14.2519723"><ele>119.0</ele><time>2026-05-01T08:47:44.583Z</time></trkpt><trkpt lat="42.373921" lon="14.2521985"><ele>122.66666666666666</ele><time>2026-05-01T08:47:45.583Z</time></trkpt><trkpt lat="42.3738695" lon="14.2524261"><ele>126.33333333333334</ele><time>2026-05-01T08:47:46.583Z</time></trkpt><trkpt lat="42.3738221" lon="14.2526396"><ele>130.0</ele><time>2026-05-01T08:47:47.582Z</time></trkpt><trkpt lat="42.3737859" lon="14.2528475"><ele>134.33333333333334</ele><time>2026-05-01T08:47:48.582Z</time></trkpt><trkpt lat="42.3737728" lon="14.2530575"><ele>138.66666666666666</ele><time>2026-05-01T08:47:49.583Z</time></trkpt><trkpt lat="42.3737729" lon="14.2532643"><ele>143.0</ele><time>2026-05-01T08:47:50.583Z</time></trkpt><trkpt lat="42.3737798" lon="14.2534698"><ele>146.25</ele><time>2026-05-01T08:47:51.582Z</time></trkpt><trkpt lat="42.3737912" lon="14.2536741"><ele>149.5</ele><time>2026-05-01T08:47:52.582Z</time></trkpt><trkpt lat="42.37381" lon="14.253871"><ele>152.75</ele><time>2026-05-01T08:47:53.583Z</time></trkpt><trkpt lat="42.3738403" lon="14.2540569"><ele>156.0</ele><time>2026-05-01T08:47:54.583Z</time></trkpt><trkpt lat="42.3738824" lon="14.2542271"><ele>156.0</ele><time>2026-05-01T08:47:55.583Z</time></trkpt><trkpt lat="42.3739276" lon="14.2543935"><ele>156.0</ele><time>2026-05-01T08:47:56.583Z</time></trkpt><trkpt lat="42.3739808" lon="14.2545539"><ele>156.0</ele><time>2026-05-01T08:47:57.583Z</time></trkpt><trkpt lat="42.3740407" lon="14.2547088"><ele>156.0</ele><time>2026-05-01T08:47:58.583Z</time></trkpt><trkpt lat="42.374091" lon="14.2548589"><ele>158.0</ele><time>2026-05-01T08:47:59.583Z</time></trkpt><trkpt lat="42.3741691" lon="14.2549965"><ele>160.0</ele><time>2026-05-01T08:48:00.582Z</time></trkpt><trkpt lat="42.3742432" lon="14.2551422"><ele>162.0</ele><time>2026-05-01T08:48:01.582Z</time></trkpt><trkpt lat="42.3742937" lon="14.2553007"><ele>164.0</ele><time>2026-05-01T08:48:02.582Z</time></trkpt><trkpt lat="42.3743355" lon="14.2554628"><ele>164.0</ele><time>2026-05-01T08:48:03.583Z</time></trkpt><trkpt lat="42.3743693" lon="14.2556193"><ele>164.0</ele><time>2026-05-01T08:48:04.583Z</time></trkpt><trkpt lat="42.3743815" lon="14.2557679"><ele>164.0</ele><time>2026-05-01T08:48:05.583Z</time></trkpt><trkpt lat="42.3743821" lon="14.2558918"><ele>164.0</ele><time>2026-05-01T08:48:06.583Z</time></trkpt><trkpt lat="42.3743811" lon="14.2559798"><ele>164.0</ele><time>2026-05-01T08:48:07.582Z</time></trkpt><trkpt lat="42.3743556" lon="14.2560586"><ele>166.0</ele><time>2026-05-01T08:48:09.583Z</time></trkpt></trkseg></trk></gpx>